Impacts TAF Board INFO
FOR SITUATIONAL AWARENESS. NOT TO BE USED FOR FLIGHT PLANNING PURPOSES.
IDs:

KDCA - Washington/National, VA, US

Issued at 2339 UTC 21 Jun 2018
Updated at 0311 UTC 22 Jun 2018
Potential Impact None Slight Moderate High
Time0252Z 22/04Z 22/05Z 22/06Z 22/07Z 22/08Z 22/09Z 22/10Z 22/11Z 22/12Z 22/13Z 22/14Z 22/15Z 22/16Z>>
Type OBS PRVL PRVL PRVL PRVL PRVL PRVL PRVL PRVL PRVL PRVL PRVL PRVL PRVL
VIS 10 6 6 6 6 6 5 5 5 5 5 5 5 5
CIG 200 25 25 25 25 25 15 15 15 25 25 25 25 25
Cover OVC OVC OVC OVC OVC OVC OVC OVC OVC BKN BKN BKN BKN BKN
FltCat VFR MVFR MVFR MVFR MVFR MVFR MVFR MVFR MVFR MVFR MVFR MVFR MVFR MVFR
WX -- -SHRA -SHRA -SHRA -SHRA -SHRA -SHRA -SHRA -SHRA -SHRA -SHRA -SHRA -SHRA -SHRA
WDir 90 90 90 90 90 90 90 90 90 90 90 90 90 90
WSpd 3 4 4 4 4 4 8 8 8 10 10 10 10 10
WGst -- -- -- -- -- -- -- -- -- 18 18 18 18 18

Raw TAF
KDCA 212339Z 2200/2306 04006KT P6SM VCSH BKN050
  FM220400 09004KT 6SM -SHRA BKN025 OVC050
  FM220900 09008KT 5SM -SHRA SCT008 BKN015 OVC050
  FM221200 09010G18KT 5SM -SHRA SCT008 BKN025
  FM221800 09012G22KT P6SM BKN035
  FM230200 08007KT 5SM -SHRA OVC035


Raw METAR
KDCA 220252Z 09003KT 10SM SCT042 OVC200 26/19 A2982 RMK AO2 SLP099 T02610189 51007
KDCA 220152Z 10006KT 10SM SCT041 BKN140 BKN220 26/19 A2982 RMK AO2 SLP098 T02610194
KDCA 220052Z 09006KT 10SM FEW048 BKN075 OVC230 26/21 A2981 RMK AO2 SLP095 T02610206

METAR Board
Radar Display
Forecast Discussion

FOR SITUATIONAL AWARENESS. NOT TO BE USED FOR FLIGHT PLANNING PURPOSES.